Time;durP1;ratioP1;P1;durP2;ratioP2;P2;SDS_P1;SDS_P2;PMS_P1;PMS_P2;Temp;Humidity;BMP_temperature;BMP_pressure;BME280_temperature;BME280_humidity;BME280_pressure;Samples;Min_cycle;Max_cycle;Signal;HPM_P1;HPM_P2
2022/08/16 00:00:42;;;;;;;6.88;3.30;;;18.90;71.40;;;;;;4878771;29;20029;-79
2022/08/16 00:03:09;;;;;;;4.20;3.20;;;18.90;71.30;;;;;;4879963;29;20033;-79
2022/08/16 00:05:35;;;;;;;5.93;2.97;;;19.00;71.00;;;;;;4879931;29;20044;-78
2022/08/16 00:08:01;;;;;;;7.13;3.65;;;19.00;71.20;;;;;;4879803;29;20033;-79
2022/08/16 00:10:31;;;;;;;6.13;3.20;;;19.00;70.30;;;;;;4878505;29;20025;-78
2022/08/16 00:12:58;;;;;;;4.47;3.30;;;19.10;70.20;;;;;;4879855;29;20476;-78
2022/08/16 00:15:37;;;;;;;4.60;3.38;;;19.20;70.20;;;;;;4878629;29;20053;-79
2022/08/16 00:18:03;;;;;;;5.15;3.50;;;19.20;69.40;;;;;;4879786;29;20037;-79
2022/08/16 00:20:30;;;;;;;4.32;3.50;;;19.20;69.20;;;;;;4879639;29;20029;-78
2022/08/16 00:22:55;;;;;;;4.88;3.53;;;19.20;68.90;;;;;;4878622;29;20040;-78
2022/08/16 00:25:22;;;;;;;6.20;3.70;;;19.20;68.60;;;;;;4879644;29;20033;-78
2022/08/16 00:27:49;;;;;;;6.95;3.70;;;19.20;68.40;;;;;;4879679;29;20033;-78
2022/08/16 00:30:15;;;;;;;4.80;3.33;;;19.20;68.60;;;;;;4879427;29;20056;-78
2022/08/16 00:32:43;;;;;;;4.45;3.88;;;19.20;68.50;;;;;;4879752;29;20526;-78
2022/08/16 00:35:12;;;;;;;7.05;3.47;;;19.20;68.40;;;;;;4880333;29;20052;-78
2022/08/16 00:37:38;;;;;;;8.45;3.38;;;19.20;68.30;;;;;;4880436;29;20029;-78
2022/08/16 00:40:06;;;;;;;3.85;3.38;;;19.20;68.30;;;;;;4878580;29;20036;-78
2022/08/16 00:42:32;;;;;;;6.90;3.65;;;19.20;68.30;;;;;;4880008;29;20034;-77
2022/08/16 00:45:10;;;;;;;4.65;3.53;;;19.20;68.00;;;;;;4879711;29;20057;-77
2022/08/16 00:47:40;;;;;;;8.13;3.75;;;19.20;68.10;;;;;;4879317;29;20124;-78
2022/08/16 00:50:06;;;;;;;4.53;3.63;;;19.20;68.10;;;;;;4879468;29;20028;-78
2022/08/16 00:52:32;;;;;;;6.03;3.55;;;19.20;68.10;;;;;;4879475;29;20025;-77
2022/08/16 00:54:59;;;;;;;7.00;3.63;;;19.20;68.10;;;;;;4879446;29;20029;-77
2022/08/16 00:57:26;;;;;;;5.22;3.38;;;19.30;68.00;;;;;;4879323;29;20037;-77
2022/08/16 00:59:51;;;;;;;7.60;4.03;;;19.20;68.20;;;;;;4879412;29;20487;-77
2022/08/16 01:02:17;;;;;;;5.30;3.83;;;19.20;68.20;;;;;;4879303;29;20103;-77
2022/08/16 01:04:43;;;;;;;10.20;4.18;;;19.10;69.50;;;;;;4879286;29;20031;-77
2022/08/16 01:07:08;;;;;;;5.45;3.53;;;19.10;68.80;;;;;;4879150;29;20036;-77
2022/08/16 01:09:38;;;;;;;6.30;3.65;;;19.10;68.80;;;;;;4879214;29;20021;-77
2022/08/16 01:12:05;;;;;;;9.70;3.42;;;19.10;69.00;;;;;;4879204;29;20029;-77
2022/08/16 01:14:40;;;;;;;3.65;3.05;;;19.00;69.00;;;;;;4879030;29;20025;-78
2022/08/16 01:17:07;;;;;;;4.43;3.47;;;19.00;69.20;;;;;;4879137;29;20085;-78
2022/08/16 01:19:38;;;;;;;5.43;3.72;;;19.00;69.50;;;;;;4879191;29;20037;-78
2022/08/16 01:22:14;;;;;;;4.72;3.42;;;19.00;69.50;;;;;;4879231;29;20060;-79
2022/08/16 01:24:49;;;;;;;5.78;3.47;;;19.00;69.40;;;;;;4879217;29;20036;-78
2022/08/16 01:27:23;;;;;;;8.38;3.75;;;18.90;70.40;;;;;;4878073;29;20036;-79
2022/08/16 01:29:59;;;;;;;4.47;3.47;;;18.90;69.70;;;;;;4879538;29;20108;-78
2022/08/16 01:32:28;;;;;;;3.78;3.00;;;19.00;69.70;;;;;;4879439;29;20025;-79
2022/08/16 01:34:53;;;;;;;4.43;3.25;;;19.00;69.70;;;;;;4878029;29;20036;-79
2022/08/16 01:37:20;;;;;;;5.13;3.40;;;19.00;69.90;;;;;;4877883;29;20045;-79
2022/08/16 01:39:45;;;;;;;5.75;3.58;;;19.00;70.20;;;;;;4879125;29;20394;-80
2022/08/16 01:42:11;;;;;;;6.05;3.30;;;19.10;70.30;;;;;;4879320;29;20069;-79
2022/08/16 01:44:37;;;;;;;4.25;2.97;;;19.00;70.30;;;;;;4879018;29;20053;-79
2022/08/16 01:47:04;;;;;;;6.20;3.20;;;19.00;70.30;;;;;;4879284;29;20120;-80
2022/08/16 01:49:36;;;;;;;11.32;3.85;;;19.00;70.20;;;;;;4878884;29;20036;-79
2022/08/16 01:52:06;;;;;;;3.85;2.90;;;19.00;70.40;;;;;;4879077;29;20025;-79
2022/08/16 01:54:32;;;;;;;5.30;3.08;;;19.00;70.40;;;;;;4879154;29;20032;-80
2022/08/16 01:56:59;;;;;;;8.70;3.92;;;19.00;70.50;;;;;;4879177;29;20045;-79
2022/08/16 01:59:26;;;;;;;5.35;3.60;;;19.00;69.90;;;;;;4878847;29;20159;-80
2022/08/16 02:01:52;;;;;;;6.80;3.63;;;19.00;70.30;;;;;;4879020;29;20116;-80
2022/08/16 02:04:20;;;;;;;4.38;3.42;;;18.90;70.50;;;;;;4879120;29;20068;-79
2022/08/16 02:06:46;;;;;;;4.97;3.10;;;19.00;70.60;;;;;;4882172;29;20032;-80
2022/08/16 02:09:11;;;;;;;4.97;3.47;;;19.00;70.40;;;;;;4882286;29;20108;-80
2022/08/16 02:11:39;;;;;;;6.22;3.28;;;19.00;70.30;;;;;;4882215;29;20028;-80
2022/08/16 02:14:05;;;;;;;5.15;2.95;;;19.00;70.40;;;;;;4882372;29;20112;-80
2022/08/16 02:16:31;;;;;;;5.90;3.30;;;19.00;70.40;;;;;;4882156;29;20029;-80
2022/08/16 02:18:58;;;;;;;3.88;2.97;;;19.00;70.40;;;;;;4882112;29;20476;-80
2022/08/16 02:21:24;;;;;;;4.95;3.55;;;19.00;70.40;;;;;;4881862;29;20018;-79
2022/08/16 02:23:49;;;;;;;3.42;3.05;;;19.00;70.40;;;;;;4882003;29;20027;-78
2022/08/16 02:26:15;;;;;;;4.95;3.25;;;19.00;70.40;;;;;;4881865;29;20120;-78
2022/08/16 02:28:42;;;;;;;3.85;3.42;;;19.10;70.40;;;;;;4881836;29;20021;-78
2022/08/16 02:31:11;;;;;;;3.83;3.20;;;19.10;70.50;;;;;;4881848;29;20035;-78
2022/08/16 02:33:37;;;;;;;5.35;3.63;;;19.10;70.30;;;;;;4881809;29;20039;-77
2022/08/16 02:36:04;;;;;;;4.57;2.85;;;19.10;70.40;;;;;;4881762;29;20395;-77
2022/08/16 02:38:29;;;;;;;4.82;3.08;;;19.10;70.30;;;;;;4881811;29;20041;-77
2022/08/16 02:40:56;;;;;;;4.68;3.42;;;19.10;70.40;;;;;;4881644;29;20058;-77
2022/08/16 02:43:27;;;;;;;4.00;2.90;;;19.10;70.30;;;;;;4881801;29;20507;-76
2022/08/16 02:45:54;;;;;;;5.03;3.70;;;19.20;70.20;;;;;;4881687;29;20104;-76
2022/08/16 02:48:20;;;;;;;5.10;3.20;;;19.10;70.70;;;;;;4881579;29;20441;-77
2022/08/16 02:50:45;;;;;;;5.00;3.53;;;19.10;70.60;;;;;;4881656;29;20037;-78
2022/08/16 02:53:11;;;;;;;6.35;2.95;;;19.10;70.70;;;;;;4881936;29;20116;-78
2022/08/16 02:55:37;;;;;;;4.68;3.25;;;19.00;70.70;;;;;;4888062;29;20472;-77
2022/08/16 02:58:02;;;;;;;5.35;3.40;;;19.00;70.70;;;;;;4882421;29;20061;-77
2022/08/16 03:00:28;;;;;;;3.58;3.10;;;19.00;70.70;;;;;;4882301;29;20107;-77
2022/08/16 03:02:55;;;;;;;3.05;2.75;;;19.00;70.70;;;;;;4881529;29;20124;-77
2022/08/16 03:05:20;;;;;;;6.07;3.25;;;19.00;70.70;;;;;;4881353;29;20067;-77
2022/08/16 03:07:46;;;;;;;4.15;3.10;;;19.00;70.70;;;;;;4881099;29;20133;-78
2022/08/16 03:10:12;;;;;;;3.22;2.92;;;19.00;70.80;;;;;;4881331;29;20025;-78
2022/08/16 03:12:39;;;;;;;4.35;3.25;;;18.90;71.00;;;;;;4881177;29;20053;-78
2022/08/16 03:15:08;;;;;;;5.10;3.50;;;18.90;71.00;;;;;;4881200;29;20100;-78
2022/08/16 03:17:34;;;;;;;6.00;3.65;;;18.90;71.00;;;;;;4879777;29;20048;-78
2022/08/16 03:20:00;;;;;;;3.70;3.20;;;18.90;71.00;;;;;;4880809;29;20472;-78
2022/08/16 03:22:26;;;;;;;4.80;3.25;;;18.80;71.30;;;;;;4880912;29;20064;-78
2022/08/16 03:24:51;;;;;;;4.32;3.38;;;18.80;71.60;;;;;;4880894;29;20029;-78
2022/08/16 03:27:17;;;;;;;4.65;3.13;;;18.70;71.90;;;;;;4880629;29;20036;-78
2022/08/16 03:29:43;;;;;;;6.55;3.85;;;18.60;72.20;;;;;;4880610;29;20025;-78
2022/08/16 03:32:08;;;;;;;5.45;3.53;;;18.60;72.30;;;;;;4880468;29;20047;-78
2022/08/16 03:34:34;;;;;;;8.13;3.60;;;18.50;72.50;;;;;;4880446;29;20041;-78
2022/08/16 03:37:00;;;;;;;3.53;3.20;;;18.50;72.80;;;;;;4880312;29;20033;-78
2022/08/16 03:39:26;;;;;;;4.63;3.42;;;18.40;73.00;;;;;;4880455;29;20025;-77
2022/08/16 03:41:52;;;;;;;6.25;3.30;;;18.40;73.00;;;;;;4880384;29;20040;-78
2022/08/16 03:44:19;;;;;;;4.38;3.38;;;18.40;72.90;;;;;;4878740;29;20053;-78
2022/08/16 03:46:44;;;;;;;4.90;4.00;;;18.50;72.90;;;;;;4880157;29;20060;-78
2022/08/16 03:49:11;;;;;;;6.45;3.97;;;18.40;72.70;;;;;;4880126;29;20029;-77
2022/08/16 03:51:38;;;;;;;4.78;3.30;;;18.40;72.70;;;;;;4880103;29;20025;-78
2022/08/16 03:54:04;;;;;;;6.47;3.70;;;18.40;72.60;;;;;;4880107;29;20029;-77
2022/08/16 03:56:29;;;;;;;5.60;3.60;;;18.40;72.80;;;;;;4878746;29;20093;-77
2022/08/16 03:58:56;;;;;;;4.78;3.53;;;18.40;73.00;;;;;;4879904;29;20083;-77
2022/08/16 04:01:22;;;;;;;6.82;3.75;;;18.40;72.90;;;;;;4879980;29;20021;-77
2022/08/16 04:03:49;;;;;;;4.45;3.17;;;18.30;73.20;;;;;;4879888;29;20037;-77
2022/08/16 04:06:15;;;;;;;5.95;3.97;;;18.30;73.30;;;;;;4879759;29;20021;-77
2022/08/16 04:08:40;;;;;;;4.22;3.60;;;18.30;73.40;;;;;;4879798;29;20028;-76
2022/08/16 04:11:06;;;;;;;7.43;3.80;;;18.20;73.50;;;;;;4879749;29;20039;-76
2022/08/16 04:13:31;;;;;;;5.20;3.92;;;18.10;74.10;;;;;;4878537;29;20072;-76
2022/08/16 04:15:58;;;;;;;4.32;3.45;;;18.00;74.20;;;;;;4879728;29;20041;-77
2022/08/16 04:18:24;;;;;;;5.47;3.40;;;18.00;74.30;;;;;;4879636;29;20039;-77
2022/08/16 04:20:51;;;;;;;5.93;3.60;;;18.00;74.40;;;;;;4879673;29;20107;-78
2022/08/16 04:23:16;;;;;;;5.72;3.45;;;18.00;74.30;;;;;;4879692;29;20380;-77
2022/08/16 04:25:43;;;;;;;5.35;3.75;;;18.00;74.10;;;;;;4879621;29;20029;-77
2022/08/16 04:28:10;;;;;;;6.68;3.60;;;18.00;74.10;;;;;;4879304;29;20487;-77
2022/08/16 04:30:35;;;;;;;6.40;3.47;;;18.00;73.90;;;;;;4879502;29;20033;-79
2022/08/16 04:33:01;;;;;;;4.72;3.58;;;18.00;74.00;;;;;;4879575;29;20029;-79
2022/08/16 04:35:27;;;;;;;6.68;3.92;;;18.00;74.20;;;;;;4879521;29;20033;-79
2022/08/16 04:37:52;;;;;;;6.57;4.13;;;17.90;74.30;;;;;;4879466;29;20408;-79
2022/08/16 04:40:19;;;;;;;7.75;4.32;;;17.90;74.60;;;;;;4879393;29;20032;-77
2022/08/16 04:42:45;;;;;;;7.78;4.07;;;17.90;74.80;;;;;;4879251;29;20021;-77
2022/08/16 04:45:13;;;;;;;7.68;4.32;;;17.80;74.90;;;;;;4879387;29;20036;-78
2022/08/16 04:47:40;;;;;;;8.23;4.25;;;17.80;74.80;;;;;;4879379;29;20033;-77
2022/08/16 04:50:09;;;;;;;5.25;4.28;;;17.80;75.00;;;;;;4879272;29;20033;-77
2022/08/16 04:52:35;;;;;;;6.88;4.57;;;17.80;75.00;;;;;;4879335;29;20064;-77
2022/08/16 04:55:13;;;;;;;8.07;4.60;;;17.70;75.10;;;;;;4879415;29;20036;-78
2022/08/16 04:57:39;;;;;;;9.23;4.68;;;17.80;75.30;;;;;;4879093;29;20037;-78
2022/08/16 05:00:11;;;;;;;6.88;4.00;;;17.80;75.10;;;;;;4879424;29;20496;-78
2022/08/16 05:02:37;;;;;;;7.85;5.20;;;17.90;74.90;;;;;;4879337;29;20040;-77
2022/08/16 05:05:03;;;;;;;6.75;5.32;;;17.90;75.00;;;;;;4879080;29;20448;-78
2022/08/16 05:07:29;;;;;;;7.00;5.07;;;17.90;75.00;;;;;;4878664;29;20033;-78
2022/08/16 05:09:54;;;;;;;6.22;4.10;;;17.90;74.90;;;;;;4879225;29;20373;-77
2022/08/16 05:12:20;;;;;;;7.70;5.00;;;17.90;74.80;;;;;;4879137;29;20083;-77
2022/08/16 05:14:45;;;;;;;7.57;4.65;;;18.00;74.40;;;;;;4879242;29;20040;-78
2022/08/16 05:17:11;;;;;;;5.57;4.50;;;18.10;74.40;;;;;;4877814;29;20041;-77
2022/08/16 05:19:36;;;;;;;6.13;4.35;;;18.30;73.90;;;;;;4877745;29;20021;-77
2022/08/16 05:22:02;;;;;;;7.00;4.88;;;18.40;73.30;;;;;;4877685;29;20044;-77
2022/08/16 05:24:29;;;;;;;6.63;4.28;;;18.40;72.90;;;;;;4878801;29;20029;-77
2022/08/16 05:26:54;;;;;;;5.40;4.07;;;18.50;72.90;;;;;;4878878;29;20038;-78
2022/08/16 05:29:20;;;;;;;5.40;4.00;;;18.40;72.80;;;;;;4878769;29;20029;-77
2022/08/16 05:31:45;;;;;;;7.45;4.40;;;18.50;72.80;;;;;;4878948;29;20068;-78
2022/08/16 05:34:11;;;;;;;12.15;5.05;;;18.40;72.90;;;;;;4878842;29;20365;-78
2022/08/16 05:36:37;;;;;;;5.75;4.10;;;18.40;73.00;;;;;;4878754;29;20073;-77
2022/08/16 05:39:05;;;;;;;4.57;3.67;;;18.40;73.10;;;;;;4878901;29;20021;-77
2022/08/16 05:41:30;;;;;;;6.07;3.75;;;18.50;72.90;;;;;;4882441;29;20089;-78
2022/08/16 05:43:59;;;;;;;5.70;3.58;;;18.70;72.60;;;;;;4881089;29;20057;-78
2022/08/16 05:46:25;;;;;;;6.78;4.00;;;18.80;72.20;;;;;;4882364;29;20391;-78
2022/08/16 05:48:51;;;;;;;4.50;3.50;;;18.90;71.80;;;;;;4881179;29;20037;-78
2022/08/16 05:51:17;;;;;;;7.45;4.30;;;18.90;71.40;;;;;;4882488;29;20072;-78
2022/08/16 05:53:42;;;;;;;8.30;4.40;;;19.10;71.20;;;;;;4882072;29;20029;-78
2022/08/16 05:56:08;;;;;;;4.65;4.15;;;19.20;70.70;;;;;;4882220;29;20032;-78
2022/08/16 05:58:34;;;;;;;6.03;3.75;;;19.30;70.40;;;;;;4882126;29;20045;-79
2022/08/16 06:00:59;;;;;;;6.75;3.80;;;19.40;70.10;;;;;;4882340;29;20027;-78
2022/08/16 06:03:25;;;;;;;5.72;3.40;;;19.40;69.80;;;;;;4882032;29;20064;-78
2022/08/16 06:05:50;;;;;;;7.53;3.58;;;19.60;69.70;;;;;;4882052;29;20493;-78
2022/08/16 06:08:16;;;;;;;5.25;3.80;;;19.70;69.50;;;;;;4882028;29;20033;-79
2022/08/16 06:10:42;;;;;;;4.00;3.33;;;19.70;68.90;;;;;;4880405;29;20040;-79
2022/08/16 06:13:07;;;;;;;4.75;3.33;;;19.80;68.70;;;;;;4881840;29;20067;-80
2022/08/16 06:15:33;;;;;;;7.45;4.00;;;20.00;68.70;;;;;;4881699;29;20069;-77
2022/08/16 06:17:59;;;;;;;6.95;3.92;;;20.10;68.20;;;;;;4881780;29;20065;-76
2022/08/16 06:20:27;;;;;;;6.28;3.70;;;20.30;67.10;;;;;;4881689;29;20029;-75
2022/08/16 06:22:57;;;;;;;6.15;3.75;;;20.40;66.40;;;;;;4881465;29;20104;-75
2022/08/16 06:25:25;;;;;;;4.03;3.28;;;20.70;65.50;;;;;;4881788;29;20396;-77
2022/08/16 06:27:51;;;;;;;5.35;3.88;;;20.90;64.70;;;;;;4881433;29;20472;-78
2022/08/16 06:30:17;;;;;;;10.20;4.20;;;21.10;64.00;;;;;;4882374;29;20057;-75
2022/08/16 06:32:43;;;;;;;11.70;4.10;;;21.30;63.30;;;;;;4881732;29;20080;-76
2022/08/16 06:35:10;;;;;;;11.52;3.65;;;21.50;61.90;;;;;;4881573;29;20025;-75
2022/08/16 06:37:36;;;;;;;5.13;3.78;;;21.70;60.90;;;;;;4881293;29;20041;-76
2022/08/16 06:40:03;;;;;;;6.45;3.83;;;21.90;60.60;;;;;;4881378;29;20036;-75
2022/08/16 06:42:28;;;;;;;6.72;3.15;;;22.00;60.20;;;;;;4881053;29;20071;-75
2022/08/16 06:44:54;;;;;;;5.25;3.60;;;22.10;60.00;;;;;;4879997;29;20073;-76
2022/08/16 06:47:20;;;;;;;7.32;3.35;;;22.20;59.30;;;;;;4881126;29;20544;-74
2022/08/16 06:49:45;;;;;;;6.03;3.20;;;22.40;58.30;;;;;;4879856;29;20057;-74
2022/08/16 06:52:12;;;;;;;5.63;3.40;;;22.50;57.80;;;;;;4881323;29;20029;-74
2022/08/16 06:54:38;;;;;;;5.70;3.67;;;22.70;57.30;;;;;;4880772;29;20444;-75
2022/08/16 06:57:05;;;;;;;12.68;3.58;;;22.70;56.70;;;;;;4880910;29;20070;-75
2022/08/16 06:59:31;;;;;;;7.53;3.85;;;22.90;55.90;;;;;;4880731;29;20031;-74
2022/08/16 07:01:58;;;;;;;5.20;3.83;;;23.00;55.50;;;;;;4879274;29;20033;-75
2022/08/16 07:04:24;;;;;;;5.57;3.58;;;23.10;55.20;;;;;;4880643;29;20309;-75
2022/08/16 07:06:50;;;;;;;3.65;3.33;;;23.20;54.80;;;;;;4880537;29;20025;-74
2022/08/16 07:09:16;;;;;;;7.18;3.63;;;23.20;54.10;;;;;;4880284;29;20036;-75
2022/08/16 07:11:42;;;;;;;4.80;3.42;;;23.30;53.90;;;;;;4880367;29;20041;-75
2022/08/16 07:14:07;;;;;;;5.40;2.92;;;23.40;53.60;;;;;;4880462;29;20086;-75
2022/08/16 07:16:33;;;;;;;6.10;3.35;;;23.40;53.50;;;;;;4880454;29;20392;-75
2022/08/16 07:18:58;;;;;;;11.30;4.90;;;23.50;53.20;;;;;;4880375;29;20476;-76
2022/08/16 07:21:25;;;;;;;12.23;5.20;;;23.50;52.80;;;;;;4878968;29;20028;-75
2022/08/16 07:23:50;;;;;;;10.63;5.70;;;23.50;53.10;;;;;;4880514;29;20071;-75
2022/08/16 07:26:22;;;;;;;8.65;4.80;;;23.50;52.90;;;;;;4880278;29;20064;-75
2022/08/16 07:28:48;;;;;;;10.18;4.32;;;23.50;52.90;;;;;;4880075;29;20064;-75
2022/08/16 07:31:15;;;;;;;6.45;3.80;;;23.60;52.80;;;;;;4880830;29;20061;-76
2022/08/16 07:33:43;;;;;;;6.22;3.88;;;23.50;53.20;;;;;;4880016;29;20025;-76
2022/08/16 07:36:09;;;;;;;11.27;4.28;;;23.20;53.80;;;;;;4880090;29;20090;-76
2022/08/16 07:38:35;;;;;;;7.35;4.45;;;23.00;53.00;;;;;;4879926;29;20052;-76
2022/08/16 07:41:01;;;;;;;11.07;4.55;;;22.70;54.00;;;;;;4879977;29;20037;-77
2022/08/16 07:43:27;;;;;;;6.30;3.95;;;22.60;54.20;;;;;;4862830;29;20060;-77
2022/08/16 07:45:54;;;;;;;8.85;4.15;;;22.50;55.50;;;;;;4879750;29;20025;-77
2022/08/16 07:48:20;;;;;;;10.90;4.55;;;22.60;56.40;;;;;;4879737;29;20043;-76
2022/08/16 07:50:46;;;;;;;10.60;5.00;;;22.60;55.20;;;;;;4879980;29;20510;-77
2022/08/16 07:53:12;;;;;;;6.00;4.47;;;22.60;54.70;;;;;;4879863;29;20112;-77
2022/08/16 07:55:38;;;;;;;7.75;3.78;;;22.70;54.70;;;;;;4879952;29;20035;-77
2022/08/16 07:58:04;;;;;;;11.60;4.32;;;22.80;54.10;;;;;;4879704;29;20123;-77
2022/08/16 08:00:31;;;;;;;12.73;4.30;;;22.80;54.00;;;;;;4879714;29;20488;-77
2022/08/16 08:02:59;;;;;;;12.18;4.40;;;22.70;54.60;;;;;;4879053;29;20025;-77
2022/08/16 08:05:25;;;;;;;7.75;4.35;;;22.80;54.50;;;;;;4879892;29;20017;-77
2022/08/16 08:07:52;;;;;;;8.25;4.25;;;22.80;53.70;;;;;;4879814;29;20088;-77
2022/08/16 08:10:19;;;;;;;13.38;4.00;;;22.90;53.70;;;;;;4879677;29;20029;-77
2022/08/16 08:12:51;;;;;;;7.43;3.90;;;22.90;53.70;;;;;;4879932;29;20031;-77
2022/08/16 08:15:17;;;;;;;7.55;4.25;;;23.00;54.00;;;;;;4879664;29;20064;-77
2022/08/16 08:17:43;;;;;;;8.13;4.55;;;23.00;52.50;;;;;;4879723;29;20057;-77
2022/08/16 08:20:12;;;;;;;8.40;4.05;;;22.90;52.90;;;;;;4879930;29;20063;-78
2022/08/16 08:22:38;;;;;;;9.38;4.90;;;23.00;52.40;;;;;;4879540;29;20028;-77
2022/08/16 08:25:06;;;;;;;5.43;4.05;;;23.10;52.30;;;;;;4879396;29;20031;-78
2022/08/16 08:27:32;;;;;;;7.78;3.85;;;23.20;52.40;;;;;;4877944;29;20507;-77
2022/08/16 08:29:58;;;;;;;8.02;3.88;;;23.40;51.40;;;;;;4879113;29;20029;-77
2022/08/16 08:32:24;;;;;;;11.25;4.00;;;23.60;50.50;;;;;;4879071;29;20518;-77
2022/08/16 08:34:49;;;;;;;7.13;3.85;;;23.70;49.80;;;;;;4879003;29;20029;-77
2022/08/16 08:37:15;;;;;;;11.00;4.32;;;23.70;49.90;;;;;;4878866;29;20071;-77
2022/08/16 08:39:41;;;;;;;7.85;3.88;;;23.80;49.00;;;;;;4879182;29;20033;-77
2022/08/16 08:42:07;;;;;;;7.85;4.38;;;23.70;48.30;;;;;;4879491;29;20403;-76
2022/08/16 08:44:33;;;;;;;8.02;3.97;;;23.70;48.30;;;;;;4879043;29;20057;-77
2022/08/16 08:47:05;;;;;;;7.53;4.00;;;23.60;48.20;;;;;;4879077;29;20025;-77
2022/08/16 08:49:32;;;;;;;5.40;3.35;;;23.60;47.80;;;;;;4879185;29;20090;-77
2022/08/16 08:51:57;;;;;;;9.07;3.88;;;23.90;47.20;;;;;;4878889;29;20056;-76
2022/08/16 08:54:25;;;;;;;6.93;3.63;;;24.10;47.10;;;;;;4879105;29;20165;-76
2022/08/16 08:56:51;;;;;;;7.95;3.55;;;24.30;45.30;;;;;;4878725;29;20053;-76
2022/08/16 08:59:16;;;;;;;10.52;3.58;;;24.20;45.20;;;;;;4878643;29;20029;-76
2022/08/16 09:01:42;;;;;;;3.80;3.40;;;24.20;45.50;;;;;;4878791;29;20033;-76
2022/08/16 09:04:09;;;;;;;6.45;3.45;;;24.20;45.70;;;;;;4877248;29;20488;-76
2022/08/16 09:06:35;;;;;;;4.82;3.58;;;24.20;45.10;;;;;;4878576;29;20039;-76
2022/08/16 09:09:02;;;;;;;8.73;3.63;;;24.10;45.40;;;;;;4878688;29;20028;-76
2022/08/16 09:11:28;;;;;;;6.18;3.40;;;24.00;44.40;;;;;;4879160;29;20053;-76
2022/08/16 09:13:54;;;;;;;7.25;3.50;;;23.90;45.00;;;;;;4878592;29;20416;-76
2022/08/16 09:16:20;;;;;;;5.97;3.85;;;23.90;45.50;;;;;;4882221;29;20064;-76
2022/08/16 09:18:45;;;;;;;6.53;3.38;;;24.00;46.60;;;;;;4882354;29;20495;-75
2022/08/16 09:21:11;;;;;;;7.65;3.65;;;24.20;45.60;;;;;;4882269;29;20388;-77
2022/08/16 09:23:37;;;;;;;9.50;3.97;;;24.30;45.20;;;;;;4882473;29;20526;-76
2022/08/16 09:26:06;;;;;;;7.47;3.60;;;24.40;44.90;;;;;;4882405;29;20037;-76
2022/08/16 09:28:33;;;;;;;9.00;3.72;;;24.60;44.80;;;;;;4882348;29;20029;-75
2022/08/16 09:30:58;;;;;;;8.82;3.80;;;24.60;43.70;;;;;;4882442;29;20025;-74
2022/08/16 09:33:24;;;;;;;8.93;4.13;;;24.70;43.80;;;;;;4882260;29;20025;-75
2022/08/16 09:35:50;;;;;;;5.28;3.28;;;24.90;43.40;;;;;;4882047;29;20033;-75
2022/08/16 09:38:15;;;;;;;7.78;3.45;;;25.10;42.80;;;;;;4882161;29;20044;-75
2022/08/16 09:40:45;;;;;;;4.40;3.40;;;25.20;42.10;;;;;;4882101;29;20025;-76
2022/08/16 09:43:14;;;;;;;7.40;3.78;;;25.20;42.20;;;;;;4881776;29;20045;-75
2022/08/16 09:45:40;;;;;;;5.68;4.00;;;24.80;43.50;;;;;;4882133;29;20025;-76
2022/08/16 09:48:10;;;;;;;5.25;3.75;;;24.70;43.50;;;;;;4882609;29;20029;-75
2022/08/16 09:50:36;;;;;;;12.10;4.43;;;24.60;43.90;;;;;;4882264;29;20021;-76
2022/08/16 09:53:06;;;;;;;9.07;4.22;;;24.70;43.90;;;;;;4882041;29;20040;-75
2022/08/16 09:55:31;;;;;;;6.70;3.88;;;24.60;43.90;;;;;;4880629;29;20036;-75
2022/08/16 09:57:57;;;;;;;5.97;4.10;;;24.80;43.70;;;;;;4881721;29;20464;-74
2022/08/16 10:00:25;;;;;;;7.15;3.75;;;24.80;44.30;;;;;;4881738;29;20116;-76
2022/08/16 10:02:52;;;;;;;6.68;4.22;;;24.70;43.70;;;;;;4881937;29;20600;-75
2022/08/16 10:05:18;;;;;;;11.63;4.60;;;24.60;44.00;;;;;;4881570;29;20025;-75
2022/08/16 10:07:46;;;;;;;4.97;3.55;;;24.50;44.70;;;;;;4881719;29;20029;-75
2022/08/16 10:10:12;;;;;;;5.22;2.72;;;24.60;44.40;;;;;;4881547;29;20104;-76
2022/08/16 10:15:22;;;;;;;4.38;3.17;;;25.10;43.40;;;;;;4881469;29;20035;-75
2022/08/16 10:17:52;;;;;;;5.78;3.50;;;25.40;42.30;;;;;;4881216;29;20041;-75
2022/08/16 10:20:18;;;;;;;5.50;3.58;;;25.80;42.30;;;;;;4881379;29;20033;-75
2022/08/16 10:22:43;;;;;;;5.07;3.30;;;25.90;40.20;;;;;;4881429;29;20101;-75
2022/08/16 10:25:09;;;;;;;4.68;2.90;;;26.00;39.90;;;;;;4880849;29;20025;-77
2022/08/16 10:27:35;;;;;;;6.10;3.63;;;26.30;39.70;;;;;;4879005;29;20442;-77
2022/08/16 10:30:04;;;;;;;4.00;2.83;;;26.50;38.60;;;;;;4881155;29;20021;-78
2022/08/16 10:32:30;;;;;;;3.40;2.97;;;26.50;38.40;;;;;;4881162;29;20040;-78
2022/08/16 10:34:56;;;;;;;5.68;3.78;;;26.60;39.00;;;;;;4881005;29;20025;-78
2022/08/16 10:37:21;;;;;;;7.22;3.30;;;26.40;38.30;;;;;;4881122;29;20048;-77
2022/08/16 10:39:47;;;;;;;6.40;2.95;;;26.40;38.50;;;;;;4879552;29;20021;-78
2022/08/16 10:42:12;;;;;;;6.30;3.58;;;26.60;38.40;;;;;;4881224;29;20037;-77
2022/08/16 10:44:38;;;;;;;6.65;3.20;;;26.90;38.30;;;;;;4881058;29;20056;-78
2022/08/16 10:47:04;;;;;;;4.78;2.95;;;27.20;37.50;;;;;;4881152;29;20105;-78
2022/08/16 10:49:30;;;;;;;6.03;2.75;;;27.30;36.60;;;;;;4881418;29;20041;-78
2022/08/16 10:51:56;;;;;;;4.72;3.80;;;27.30;37.20;;;;;;4880915;29;20098;-77
2022/08/16 10:54:22;;;;;;;4.38;3.65;;;27.30;36.60;;;;;;4880625;29;20041;-78
2022/08/16 10:56:48;;;;;;;9.02;3.28;;;27.60;35.80;;;;;;4880518;29;20551;-78
2022/08/16 10:59:14;;;;;;;6.72;2.70;;;27.80;35.00;;;;;;4880988;29;20029;-78
2022/08/16 11:01:40;;;;;;;4.05;2.42;;;27.80;35.20;;;;;;4880733;29;20021;-78
2022/08/16 11:04:06;;;;;;;4.15;2.78;;;28.10;35.50;;;;;;4880609;29;20059;-79
2022/08/16 11:06:33;;;;;;;5.78;3.30;;;28.30;34.80;;;;;;4880364;29;20028;-79
2022/08/16 11:08:58;;;;;;;5.07;3.08;;;28.60;33.90;;;;;;4880252;29;20025;-78
2022/08/16 11:11:25;;;;;;;4.70;2.60;;;28.80;33.20;;;;;;4880220;29;20045;-78
2022/08/16 11:13:51;;;;;;;3.60;2.42;;;28.70;32.60;;;;;;4878851;29;20032;-74
2022/08/16 11:16:18;;;;;;;4.47;2.60;;;28.50;33.10;;;;;;4880343;29;20033;-75
2022/08/16 11:18:44;;;;;;;3.42;2.58;;;28.40;33.40;;;;;;4880136;29;20044;-74
2022/08/16 11:21:11;;;;;;;3.90;2.28;;;28.50;33.40;;;;;;4880116;29;20021;-75
2022/08/16 11:23:36;;;;;;;4.75;2.67;;;28.60;33.50;;;;;;4880235;29;20120;-75
2022/08/16 11:26:02;;;;;;;6.43;2.42;;;28.80;33.10;;;;;;4880383;29;20100;-76
2022/08/16 11:28:28;;;;;;;3.53;2.45;;;28.90;32.40;;;;;;4880232;29;20044;-76
2022/08/16 11:30:53;;;;;;;3.63;2.60;;;28.90;32.50;;;;;;4880254;29;20041;-76
2022/08/16 11:33:19;;;;;;;5.05;2.80;;;28.70;32.40;;;;;;4880214;29;20029;-76
2022/08/16 11:35:45;;;;;;;4.32;2.78;;;28.50;33.10;;;;;;4880024;29;20500;-75
2022/08/16 11:38:14;;;;;;;9.98;2.83;;;28.50;33.60;;;;;;4879089;29;20072;-75
2022/08/16 11:40:45;;;;;;;4.35;2.47;;;28.50;33.00;;;;;;4880081;29;20537;-75
2022/08/16 11:43:17;;;;;;;4.53;2.60;;;28.40;33.10;;;;;;4879861;29;20511;-75
2022/08/16 11:45:45;;;;;;;4.65;2.72;;;28.00;32.60;;;;;;4879901;29;20053;-75
2022/08/16 11:48:12;;;;;;;5.82;3.08;;;27.80;32.60;;;;;;4879736;29;20033;-74
2022/08/16 11:50:38;;;;;;;4.80;2.55;;;27.70;33.50;;;;;;4879801;29;20021;-74
2022/08/16 11:53:05;;;;;;;2.85;2.58;;;27.50;33.50;;;;;;4879853;29;20116;-76
2022/08/16 11:55:32;;;;;;;4.30;2.70;;;27.20;33.60;;;;;;4879727;29;20033;-75
2022/08/16 11:57:59;;;;;;;3.33;2.63;;;27.10;33.90;;;;;;4879853;29;20044;-74
2022/08/16 12:00:25;;;;;;;3.88;2.60;;;27.10;34.60;;;;;;4879757;29;20028;-75
2022/08/16 12:02:50;;;;;;;3.40;2.42;;;27.30;34.60;;;;;;4879920;29;20037;-74
2022/08/16 12:05:16;;;;;;;4.63;2.65;;;27.70;34.30;;;;;;4880039;29;20040;-75
2022/08/16 12:07:42;;;;;;;3.28;2.88;;;27.90;33.90;;;;;;4882683;29;20017;-75
2022/08/16 12:10:17;;;;;;;6.68;2.85;;;28.10;33.40;;;;;;4879841;29;20399;-75
2022/08/16 12:12:44;;;;;;;3.53;2.50;;;28.00;33.30;;;;;;4879457;29;20021;-74
2022/08/16 12:15:10;;;;;;;3.72;2.45;;;27.90;32.80;;;;;;4879248;29;20559;-76
2022/08/16 12:17:37;;;;;;;5.03;2.70;;;27.80;32.80;;;;;;4879264;29;20490;-75
2022/08/16 12:20:09;;;;;;;4.75;2.65;;;27.90;32.70;;;;;;4879111;29;20040;-76
2022/08/16 12:22:37;;;;;;;3.47;2.40;;;28.20;33.40;;;;;;4879425;29;20535;-76
2022/08/16 12:25:09;;;;;;;5.63;2.70;;;28.40;32.90;;;;;;4879210;29;20112;-74
2022/08/16 12:27:35;;;;;;;4.07;2.65;;;28.40;32.50;;;;;;4879250;29;20476;-75
2022/08/16 12:30:02;;;;;;;3.28;2.00;;;28.40;32.70;;;;;;4879273;29;20051;-76
2022/08/16 12:32:28;;;;;;;3.97;2.42;;;28.50;32.20;;;;;;4878936;29;20515;-76
2022/08/16 12:34:54;;;;;;;6.53;2.83;;;28.50;32.20;;;;;;4879148;29;20041;-76
2022/08/16 12:37:20;;;;;;;3.33;2.13;;;28.50;32.00;;;;;;4879112;29;20060;-76
2022/08/16 12:39:46;;;;;;;2.50;2.10;;;28.30;32.30;;;;;;4879095;29;20021;-76
2022/08/16 12:42:11;;;;;;;3.72;2.60;;;28.30;32.50;;;;;;4878892;29;20037;-76
2022/08/16 12:44:40;;;;;;;4.45;2.78;;;28.50;33.60;;;;;;4878607;29;20124;-76